Time;durP1;ratioP1;P1;durP2;ratioP2;P2;SDS_P1;SDS_P2;PMS_P1;PMS_P2;Temp;Humidity;BMP_temperature;BMP_pressure;BME280_temperature;BME280_humidity;BME280_pressure;Samples;Min_cycle;Max_cycle;Signal;HPM_P1;HPM_P2
2023/06/22 00:01:19;;;;;;;3.00;2.67;;;21.40;99.90;;;;;;5051448;28;20207;-74
2023/06/22 00:03:46;;;;;;;2.33;2.13;;;21.40;99.90;;;;;;5050567;28;20257;-74
2023/06/22 00:06:14;;;;;;;3.88;3.05;;;21.30;99.90;;;;;;5051328;28;20246;-72
2023/06/22 00:08:41;;;;;;;3.75;2.50;;;21.30;99.90;;;;;;5051097;28;20249;-76
2023/06/22 00:11:08;;;;;;;2.90;2.10;;;21.20;99.90;;;;;;5051524;28;20638;-75
2023/06/22 00:13:35;;;;;;;3.33;2.45;;;21.30;99.90;;;;;;5050931;28;20234;-75
2023/06/22 00:16:02;;;;;;;4.07;2.38;;;21.40;99.90;;;;;;5051291;28;20270;-75
2023/06/22 00:18:30;;;;;;;4.60;2.95;;;21.40;99.90;;;;;;5050233;28;20686;-75
2023/06/22 00:21:00;;;;;;;5.80;3.13;;;21.40;99.90;;;;;;5050846;28;20694;-75
2023/06/22 00:23:28;;;;;;;2.95;2.63;;;21.40;99.90;;;;;;5047967;28;20711;-74
2023/06/22 00:25:55;;;;;;;3.83;2.50;;;21.40;99.90;;;;;;5051236;28;20249;-73
2023/06/22 00:28:22;;;;;;;4.90;2.08;;;21.40;99.90;;;;;;5051419;28;20245;-73
2023/06/22 00:30:50;;;;;;;6.43;2.20;;;21.40;99.90;;;;;;5050750;28;20662;-73
2023/06/22 00:33:17;;;;;;;3.47;2.53;;;21.40;99.90;;;;;;5050803;28;20234;-73
2023/06/22 00:35:44;;;;;;;4.82;2.70;;;21.40;99.90;;;;;;5050758;28;20585;-73
2023/06/22 00:38:11;;;;;;;4.15;2.90;;;21.50;99.90;;;;;;5050853;28;20238;-73
2023/06/22 00:40:39;;;;;;;5.70;2.85;;;21.50;99.90;;;;;;5050194;28;20234;-73
2023/06/22 00:43:07;;;;;;;4.75;2.80;;;21.50;99.90;;;;;;5050937;28;20238;-74
2023/06/22 00:45:34;;;;;;;3.65;3.17;;;21.50;99.90;;;;;;5050165;28;20238;-74
2023/06/22 00:48:01;;;;;;;2.85;2.65;;;21.50;99.90;;;;;;5050721;28;20679;-74
2023/06/22 00:50:33;;;;;;;2.63;2.42;;;21.50;99.90;;;;;;5050266;28;20288;-73
2023/06/22 00:53:07;;;;;;;4.47;3.35;;;21.50;99.90;;;;;;5050195;28;20282;-74
2023/06/22 00:55:37;;;;;;;4.03;2.70;;;21.40;99.90;;;;;;5050071;28;20283;-75
2023/06/22 00:58:07;;;;;;;3.33;2.70;;;21.40;99.90;;;;;;5050527;28;20294;-75
2023/06/22 01:00:35;;;;;;;3.28;2.78;;;21.40;99.90;;;;;;5050124;28;20655;-75
2023/06/22 01:03:03;;;;;;;4.68;3.17;;;21.40;99.90;;;;;;5036672;28;20709;-75
2023/06/22 01:05:32;;;;;;;4.30;3.90;;;21.50;99.90;;;;;;5050353;28;20246;-75
2023/06/22 01:08:09;;;;;;;4.95;4.28;;;21.50;99.90;;;;;;5050469;28;20250;-78
2023/06/22 01:10:42;;;;;;;4.78;3.45;;;21.50;99.90;;;;;;5050099;28;20242;-73
2023/06/22 01:13:19;;;;;;;6.15;3.38;;;21.60;99.90;;;;;;5050551;28;20238;-72
2023/06/22 01:15:50;;;;;;;3.05;2.50;;;21.60;99.90;;;;;;5049859;28;20248;-75
2023/06/22 01:18:19;;;;;;;3.10;2.58;;;21.50;99.90;;;;;;5050237;28;20633;-76
2023/06/22 01:20:47;;;;;;;2.25;2.10;;;21.40;99.90;;;;;;5050048;28;20216;-78
2023/06/22 01:23:25;;;;;;;3.05;2.63;;;21.40;99.90;;;;;;5050259;28;20226;-77
2023/06/22 01:26:03;;;;;;;2.85;2.50;;;21.30;99.90;;;;;;5046921;28;20211;-72
2023/06/22 01:28:47;;;;;;;2.50;1.90;;;21.30;99.90;;;;;;5042027;28;20210;-76
2023/06/22 01:31:16;;;;;;;3.13;1.95;;;21.20;99.90;;;;;;5048926;28;20208;-75
2023/06/22 01:33:46;;;;;;;3.13;2.10;;;21.20;99.90;;;;;;5053960;28;20230;-75
2023/06/22 01:36:14;;;;;;;2.17;2.00;;;21.20;99.90;;;;;;5054525;28;20273;-75
2023/06/22 01:38:42;;;;;;;4.63;1.77;;;21.10;99.90;;;;;;5053962;28;20239;-75
2023/06/22 01:41:10;;;;;;;2.40;2.20;;;21.10;99.90;;;;;;5054201;28;20650;-75
2023/06/22 01:43:38;;;;;;;2.08;1.63;;;21.10;99.90;;;;;;5053790;28;20721;-73
2023/06/22 01:46:07;;;;;;;2.65;1.90;;;21.10;99.90;;;;;;5053935;28;20238;-73
2023/06/22 01:48:34;;;;;;;2.70;1.65;;;21.10;99.90;;;;;;5053500;28;20695;-73
2023/06/22 01:51:01;;;;;;;1.30;1.20;;;21.10;99.90;;;;;;5054349;28;20245;-74
2023/06/22 01:53:28;;;;;;;1.40;1.30;;;21.00;99.90;;;;;;5053722;28;20210;-73
2023/06/22 01:55:55;;;;;;;2.67;1.38;;;21.00;99.90;;;;;;5054183;28;20266;-74
2023/06/22 01:58:24;;;;;;;2.83;1.23;;;21.00;99.90;;;;;;5054233;28;20439;-74
2023/06/22 02:00:57;;;;;;;15.05;1.95;;;20.90;99.90;;;;;;5053596;28;20257;-74
2023/06/22 02:03:32;;;;;;;2.60;1.00;;;20.90;99.90;;;;;;5054104;28;20207;-73
2023/06/22 02:06:05;;;;;;;1.30;1.10;;;20.90;99.90;;;;;;5053811;28;20241;-72
2023/06/22 02:08:37;;;;;;;5.93;1.63;;;20.80;99.90;;;;;;5053351;28;20752;-74
2023/06/22 02:11:06;;;;;;;1.38;1.00;;;20.80;99.90;;;;;;5053562;28;20210;-73
2023/06/22 02:13:33;;;;;;;3.28;1.45;;;20.80;99.90;;;;;;5053183;28;20732;-73
2023/06/22 02:16:01;;;;;;;2.30;1.38;;;20.70;99.90;;;;;;5053266;28;20269;-73
2023/06/22 02:18:30;;;;;;;2.15;1.33;;;20.70;99.90;;;;;;5053226;28;20242;-79
2023/06/22 02:20:57;;;;;;;1.80;1.33;;;20.70;99.90;;;;;;5053492;28;20249;-74
2023/06/22 02:23:24;;;;;;;1.88;1.30;;;20.70;99.90;;;;;;5053504;28;20678;-74
2023/06/22 02:25:51;;;;;;;2.47;1.25;;;20.70;99.90;;;;;;5053856;28;20207;-75
2023/06/22 02:28:18;;;;;;;3.92;1.48;;;20.70;99.90;;;;;;5053269;28;20565;-74
2023/06/22 02:30:45;;;;;;;6.88;1.48;;;20.70;99.90;;;;;;5053051;28;20242;-74
2023/06/22 02:33:12;;;;;;;4.18;1.40;;;20.60;99.90;;;;;;5053284;28;20239;-74
2023/06/22 02:35:45;;;;;;;1.25;1.15;;;20.60;99.90;;;;;;5052887;28;20262;-74
2023/06/22 02:38:12;;;;;;;3.13;1.67;;;20.60;99.90;;;;;;5053099;28;20211;-75
2023/06/22 02:40:39;;;;;;;2.10;1.00;;;20.70;99.90;;;;;;5052944;28;20207;-75
2023/06/22 02:43:06;;;;;;;3.63;0.90;;;20.70;99.90;;;;;;5052958;28;20249;-75
2023/06/22 02:45:33;;;;;;;1.23;1.10;;;20.70;99.90;;;;;;5052466;28;20678;-75
2023/06/22 02:48:00;;;;;;;1.27;1.17;;;20.70;99.90;;;;;;5053110;28;20246;-75
2023/06/22 02:50:27;;;;;;;2.85;1.45;;;20.70;99.90;;;;;;5052461;28;20261;-73
2023/06/22 02:52:55;;;;;;;2.97;1.17;;;20.70;99.90;;;;;;5043461;28;20241;-75
2023/06/22 02:55:23;;;;;;;1.25;0.70;;;20.70;99.90;;;;;;5053462;28;20250;-75
2023/06/22 02:57:52;;;;;;;2.80;1.52;;;20.70;99.90;;;;;;5041916;28;20215;-74
2023/06/22 03:00:21;;;;;;;1.55;1.40;;;20.60;99.90;;;;;;5050376;28;20260;-74
2023/06/22 03:02:49;;;;;;;5.85;1.33;;;20.70;99.90;;;;;;5038398;28;20234;-74
2023/06/22 03:05:18;;;;;;;1.33;1.23;;;20.60;99.90;;;;;;5052567;28;20211;-74
2023/06/22 03:07:45;;;;;;;2.53;1.40;;;20.50;99.90;;;;;;5052410;28;20210;-72
2023/06/22 03:10:15;;;;;;;3.08;1.25;;;20.40;99.90;;;;;;5052887;28;20241;-74
2023/06/22 03:12:43;;;;;;;3.10;1.90;;;20.40;99.90;;;;;;5051925;28;20206;-74
2023/06/22 03:15:12;;;;;;;2.35;1.20;;;20.40;99.90;;;;;;5052476;28;20716;-75
2023/06/22 03:17:40;;;;;;;4.65;1.50;;;20.40;99.90;;;;;;5051864;28;20210;-74
2023/06/22 03:20:10;;;;;;;2.88;1.55;;;20.40;99.90;;;;;;5052564;28;20210;-73
2023/06/22 03:22:37;;;;;;;1.98;1.85;;;20.40;99.90;;;;;;5052266;28;20206;-73
2023/06/22 03:25:09;;;;;;;1.60;1.50;;;20.40;99.90;;;;;;5052471;28;20235;-73
2023/06/22 03:27:38;;;;;;;3.35;2.25;;;20.40;99.90;;;;;;5051697;28;20583;-73
2023/06/22 03:30:05;;;;;;;1.90;1.77;;;20.50;99.90;;;;;;5051846;28;20213;-73
2023/06/22 03:32:32;;;;;;;2.63;2.42;;;20.50;99.90;;;;;;5052169;28;20206;-73
2023/06/22 03:34:59;;;;;;;4.30;1.50;;;20.40;99.90;;;;;;5052149;28;20239;-73
2023/06/22 03:37:26;;;;;;;1.90;1.80;;;20.50;99.90;;;;;;5051756;28;20239;-74
2023/06/22 03:39:53;;;;;;;3.00;1.90;;;20.40;99.90;;;;;;5052451;28;20246;-74
2023/06/22 03:42:20;;;;;;;3.35;2.17;;;20.50;99.90;;;;;;5052147;28;20242;-74
2023/06/22 03:44:49;;;;;;;5.88;2.97;;;20.50;99.90;;;;;;5051559;28;20239;-76
2023/06/22 03:47:16;;;;;;;5.07;2.42;;;20.50;99.90;;;;;;5051676;28;20551;-73
2023/06/22 03:49:42;;;;;;;2.50;2.30;;;20.50;99.90;;;;;;5051792;28;20242;-74
2023/06/22 03:52:10;;;;;;;3.17;2.28;;;20.50;99.90;;;;;;5051583;28;20246;-72
2023/06/22 03:54:37;;;;;;;12.35;3.25;;;20.50;99.90;;;;;;5050895;28;20257;-79
2023/06/22 03:57:05;;;;;;;3.65;2.40;;;20.50;99.90;;;;;;5050700;28;20269;-74
2023/06/22 03:59:32;;;;;;;3.65;2.78;;;20.50;99.90;;;;;;5051119;28;20238;-75
2023/06/22 04:02:00;;;;;;;3.20;2.90;;;20.50;99.90;;;;;;5051421;28;20202;-74
2023/06/22 04:04:27;;;;;;;4.80;3.45;;;20.50;99.90;;;;;;5051009;28;20683;-75
2023/06/22 04:06:54;;;;;;;4.72;3.08;;;20.50;99.90;;;;;;5049702;28;20302;-75
2023/06/22 04:09:22;;;;;;;3.88;3.40;;;20.50;99.90;;;;;;5045087;28;20207;-75
2023/06/22 04:11:49;;;;;;;3.10;2.80;;;20.60;99.90;;;;;;5050140;28;20580;-75
2023/06/22 04:14:16;;;;;;;4.25;3.53;;;20.60;99.90;;;;;;5051075;28;20241;-73
2023/06/22 04:16:43;;;;;;;4.57;3.10;;;20.60;99.90;;;;;;5051034;28;20277;-73
2023/06/22 04:19:16;;;;;;;5.18;3.08;;;20.60;99.90;;;;;;5050975;28;20246;-73
2023/06/22 04:21:43;;;;;;;4.40;2.67;;;20.70;99.90;;;;;;5050597;28;20246;-75
2023/06/22 04:24:10;;;;;;;4.38;2.95;;;20.70;99.90;;;;;;5050319;28;20238;-74
2023/06/22 04:26:37;;;;;;;5.70;3.35;;;20.70;99.90;;;;;;5038029;28;20613;-74
2023/06/22 04:29:05;;;;;;;4.13;2.63;;;20.70;99.90;;;;;;5050921;28;20238;-73
2023/06/22 04:31:36;;;;;;;3.45;3.03;;;20.70;99.90;;;;;;5050592;28;20662;-79
2023/06/22 04:34:06;;;;;;;3.50;2.65;;;20.70;99.90;;;;;;5051038;28;20234;-78
2023/06/22 04:36:39;;;;;;;3.92;2.67;;;20.70;99.90;;;;;;5049929;28;20329;-74
2023/06/22 04:39:09;;;;;;;5.70;3.63;;;20.70;99.90;;;;;;5050732;28;20249;-74
2023/06/22 04:41:42;;;;;;;3.85;2.85;;;20.70;99.90;;;;;;5045055;28;20315;-76
2023/06/22 04:44:10;;;;;;;3.50;2.58;;;20.70;99.90;;;;;;5050712;28;20219;-77
2023/06/22 04:46:38;;;;;;;4.72;3.85;;;20.70;99.90;;;;;;5049848;28;20226;-78
2023/06/22 04:49:09;;;;;;;4.28;3.38;;;20.70;99.90;;;;;;5050684;28;20692;-77
2023/06/22 04:51:38;;;;;;;5.20;2.83;;;20.70;99.90;;;;;;5048189;28;20557;-77
2023/06/22 04:54:06;;;;;;;3.72;2.88;;;20.70;99.90;;;;;;5047927;28;20230;-77
2023/06/22 04:56:32;;;;;;;3.45;3.15;;;20.70;99.90;;;;;;5046707;28;20365;-76
2023/06/22 04:58:59;;;;;;;6.72;4.00;;;20.60;99.90;;;;;;5050069;28;20233;-76
2023/06/22 05:01:26;;;;;;;4.40;4.00;;;20.50;99.90;;;;;;5049670;28;20686;-78
2023/06/22 05:03:55;;;;;;;7.00;3.42;;;20.50;99.90;;;;;;5049963;28;20656;-78
2023/06/22 05:06:24;;;;;;;4.65;3.97;;;20.50;99.90;;;;;;5048974;28;20260;-78
2023/06/22 05:08:57;;;;;;;5.90;4.32;;;20.50;99.90;;;;;;5048409;28;20209;-77
2023/06/22 05:11:24;;;;;;;4.20;3.72;;;20.60;99.90;;;;;;5049820;28;20222;-77
2023/06/22 05:13:51;;;;;;;6.53;3.85;;;20.60;99.90;;;;;;5048806;28;20207;-77
2023/06/22 05:16:23;;;;;;;5.68;4.22;;;20.50;99.90;;;;;;5048585;28;20254;-78
2023/06/22 05:18:52;;;;;;;4.55;4.15;;;20.50;99.90;;;;;;5042138;28;20194;-77
2023/06/22 05:21:20;;;;;;;8.35;4.43;;;20.60;99.90;;;;;;5049277;28;20213;-78
2023/06/22 05:23:46;;;;;;;5.68;3.97;;;20.60;99.90;;;;;;5048983;28;20210;-77
2023/06/22 05:26:15;;;;;;;4.45;4.05;;;20.60;99.90;;;;;;5047716;28;20234;-77
2023/06/22 05:28:45;;;;;;;7.03;4.82;;;20.70;99.90;;;;;;5049914;28;20214;-77
2023/06/22 05:31:13;;;;;;;5.00;4.50;;;20.70;99.90;;;;;;5050112;28;20301;-77
2023/06/22 05:33:40;;;;;;;5.20;4.80;;;20.80;99.90;;;;;;5047810;28;20234;-77
2023/06/22 05:36:07;;;;;;;7.07;4.85;;;20.80;99.90;;;;;;5050013;28;20311;-76
2023/06/22 05:38:34;;;;;;;5.38;4.38;;;20.80;99.90;;;;;;5049311;28;20213;-77
2023/06/22 05:41:01;;;;;;;6.97;4.80;;;20.80;99.90;;;;;;5050349;28;20231;-78
2023/06/22 05:43:29;;;;;;;6.95;4.97;;;20.80;99.90;;;;;;5049357;28;20256;-77
2023/06/22 05:45:56;;;;;;;5.20;4.57;;;20.80;99.90;;;;;;5049972;28;20210;-77
2023/06/22 05:48:23;;;;;;;11.90;5.53;;;20.80;99.90;;;;;;5050149;28;20242;-78
2023/06/22 05:50:50;;;;;;;7.00;5.55;;;20.80;99.90;;;;;;5049896;28;20260;-78
2023/06/22 05:53:17;;;;;;;6.85;6.25;;;20.80;99.90;;;;;;5049850;28;20238;-77
2023/06/22 05:55:44;;;;;;;6.03;5.47;;;20.80;99.90;;;;;;5049447;28;20664;-78
2023/06/22 05:58:11;;;;;;;6.25;5.75;;;20.80;99.90;;;;;;5049987;28;20238;-78
2023/06/22 06:00:39;;;;;;;8.30;5.50;;;20.80;99.90;;;;;;5049651;28;20241;-78
2023/06/22 06:03:07;;;;;;;8.90;5.47;;;20.80;99.90;;;;;;5050062;28;20242;-77
2023/06/22 06:05:35;;;;;;;6.57;5.53;;;20.80;99.90;;;;;;5049307;28;20247;-79
2023/06/22 06:08:03;;;;;;;6.32;5.72;;;20.90;99.90;;;;;;5049900;28;20234;-78
2023/06/22 06:10:30;;;;;;;9.13;5.32;;;20.90;99.90;;;;;;5049314;28;20211;-78
2023/06/22 06:12:57;;;;;;;9.88;5.97;;;21.00;99.90;;;;;;5049694;28;20207;-78
2023/06/22 06:15:24;;;;;;;8.23;5.55;;;21.00;99.90;;;;;;5050249;28;20242;-78
2023/06/22 06:17:53;;;;;;;5.65;5.03;;;21.00;99.90;;;;;;5051695;28;20234;-80
2023/06/22 06:20:21;;;;;;;6.07;5.43;;;21.00;99.90;;;;;;5051886;28;20622;-77
2023/06/22 06:22:49;;;;;;;8.02;5.60;;;21.00;99.90;;;;;;5052925;28;20258;-79
2023/06/22 06:25:16;;;;;;;7.82;5.07;;;21.00;99.90;;;;;;5053168;28;20234;-77
2023/06/22 06:27:44;;;;;;;8.35;5.22;;;21.00;99.90;;;;;;5048670;28;20221;-79
2023/06/22 06:30:12;;;;;;;6.38;5.32;;;21.10;99.90;;;;;;5047769;28;20210;-79
2023/06/22 06:32:39;;;;;;;6.18;5.57;;;21.30;99.90;;;;;;5046460;28;20316;-77
2023/06/22 06:35:09;;;;;;;10.10;7.03;;;21.30;99.90;;;;;;5050518;28;20207;-77
2023/06/22 06:37:39;;;;;;;5.97;5.35;;;21.40;99.90;;;;;;5052619;28;20226;-79
2023/06/22 06:40:10;;;;;;;8.05;4.70;;;21.40;99.90;;;;;;5052919;28;20823;-79
2023/06/22 06:42:37;;;;;;;7.93;5.72;;;21.50;99.90;;;;;;5052971;28;20579;-79
2023/06/22 06:45:05;;;;;;;6.65;6.05;;;21.50;99.90;;;;;;5053143;28;20218;-79
2023/06/22 06:47:32;;;;;;;8.27;5.72;;;21.60;99.90;;;;;;5052648;28;20265;-77
2023/06/22 06:49:59;;;;;;;6.35;5.75;;;21.60;99.90;;;;;;5052635;28;20238;-80
2023/06/22 06:52:28;;;;;;;5.35;4.85;;;21.60;99.90;;;;;;5047423;28;20215;-79
2023/06/22 06:54:54;;;;;;;7.03;5.88;;;21.60;99.90;;;;;;5038902;28;20238;-78
2023/06/22 06:57:22;;;;;;;6.63;5.35;;;21.60;99.90;;;;;;5051187;28;20311;-78
2023/06/22 06:59:49;;;;;;;7.07;5.65;;;21.60;99.90;;;;;;5052515;28;20199;-80
2023/06/22 07:02:16;;;;;;;8.23;5.00;;;21.60;99.90;;;;;;5052453;28;20667;-79
2023/06/22 07:04:43;;;;;;;5.35;4.85;;;21.70;99.90;;;;;;5042981;28;20199;-78
2023/06/22 07:07:10;;;;;;;6.05;4.53;;;21.80;99.90;;;;;;5047873;28;20243;-78
2023/06/22 07:09:38;;;;;;;6.35;4.57;;;21.80;99.90;;;;;;5051780;28;20234;-77
2023/06/22 07:12:06;;;;;;;6.53;4.28;;;22.00;99.90;;;;;;5052522;28;20558;-78
2023/06/22 07:14:33;;;;;;;4.75;4.43;;;22.30;99.90;;;;;;5051066;28;20297;-76
2023/06/22 07:17:00;;;;;;;6.63;3.92;;;22.40;99.90;;;;;;5050427;28;20281;-76
2023/06/22 07:19:27;;;;;;;4.53;3.53;;;22.60;99.90;;;;;;5049704;28;20203;-76
2023/06/22 07:21:54;;;;;;;4.57;4.13;;;22.90;99.90;;;;;;5051316;28;20237;-76
2023/06/22 07:24:21;;;;;;;3.42;3.13;;;22.80;99.90;;;;;;5048991;28;20202;-76
2023/06/22 07:26:50;;;;;;;5.47;3.67;;;22.70;99.90;;;;;;5051682;28;20235;-76
2023/06/22 07:29:17;;;;;;;3.72;3.40;;;22.60;99.90;;;;;;5040343;28;20212;-76
2023/06/22 07:31:45;;;;;;;6.80;3.70;;;22.40;99.90;;;;;;5050712;28;20806;-74
2023/06/22 07:34:12;;;;;;;4.50;4.10;;;22.20;99.90;;;;;;5050646;28;20238;-80
2023/06/22 07:36:39;;;;;;;3.70;3.28;;;22.00;99.90;;;;;;5051605;28;20258;-76
2023/06/22 07:39:06;;;;;;;3.53;2.90;;;22.00;99.90;;;;;;5051416;28;20713;-77
2023/06/22 07:41:33;;;;;;;6.03;3.67;;;22.20;99.90;;;;;;5047264;28;20238;-75
2023/06/22 07:44:03;;;;;;;4.68;2.80;;;22.40;99.90;;;;;;5050775;28;20207;-75
2023/06/22 07:46:30;;;;;;;2.53;2.33;;;22.70;99.90;;;;;;5045332;28;20242;-76
2023/06/22 07:48:59;;;;;;;5.00;2.78;;;22.80;99.90;;;;;;5051317;28;20210;-75
2023/06/22 07:51:26;;;;;;;3.00;2.72;;;22.80;99.90;;;;;;5051296;28;20242;-75
2023/06/22 07:53:53;;;;;;;2.55;2.13;;;22.90;99.90;;;;;;5051868;28;20234;-79
2023/06/22 07:56:20;;;;;;;3.42;2.83;;;23.00;99.90;;;;;;5051921;28;20242;-74
2023/06/22 07:58:48;;;;;;;3.22;1.73;;;23.10;99.90;;;;;;5049265;28;20285;-75
2023/06/22 08:01:20;;;;;;;3.05;2.72;;;23.30;99.90;;;;;;5049686;28;20210;-74
2023/06/22 08:03:48;;;;;;;3.58;2.60;;;23.40;99.90;;;;;;5049102;28;20242;-74
2023/06/22 08:06:15;;;;;;;2.42;2.22;;;23.60;99.90;;;;;;5047813;28;20305;-74
2023/06/22 08:08:42;;;;;;;2.88;2.60;;;24.00;99.90;;;;;;5049305;28;20308;-73
2023/06/22 08:11:09;;;;;;;3.03;2.28;;;24.70;99.90;;;;;;5035635;28;20203;-74
2023/06/22 08:13:36;;;;;;;3.67;2.97;;;25.10;99.90;;;;;;5056274;28;20285;-74
2023/06/22 08:16:03;;;;;;;4.80;4.22;;;25.20;99.90;;;;;;5049865;28;20313;-75
2023/06/22 08:18:31;;;;;;;5.13;3.47;;;25.00;99.90;;;;;;5050155;28;20340;-73
2023/06/22 08:20:58;;;;;;;3.20;2.90;;;24.30;99.90;;;;;;5049868;28;20307;-74
2023/06/22 08:23:25;;;;;;;3.55;2.88;;;23.70;99.90;;;;;;5050155;28;20238;-73
2023/06/22 08:25:52;;;;;;;3.15;2.72;;;23.50;99.90;;;;;;5051248;28;20249;-74
2023/06/22 08:28:19;;;;;;;3.33;3.10;;;23.40;99.90;;;;;;5050999;28;20252;-74
2023/06/22 08:30:46;;;;;;;5.10;3.60;;;23.50;99.90;;;;;;5050316;28;20245;-73
2023/06/22 08:33:13;;;;;;;4.95;3.92;;;23.50;99.90;;;;;;5040348;28;20239;-74
2023/06/22 08:35:43;;;;;;;4.90;3.47;;;23.40;99.90;;;;;;5050613;28;20337;-72
2023/06/22 08:38:10;;;;;;;3.65;3.10;;;23.00;99.90;;;;;;5050157;28;20235;-73
2023/06/22 08:40:37;;;;;;;4.15;2.78;;;22.70;99.90;;;;;;5050022;28;20210;-78
2023/06/22 08:43:05;;;;;;;3.92;3.28;;;22.40;99.90;;;;;;5051132;28;20234;-77
2023/06/22 08:45:32;;;;;;;3.53;2.72;;;22.30;99.90;;;;;;5050031;28;20203;-79
2023/06/22 08:47:59;;;;;;;2.85;2.53;;;22.30;99.90;;;;;;5050805;28;20664;-76
2023/06/22 08:50:26;;;;;;;3.00;2.50;;;22.30;99.90;;;;;;5049802;28;20238;-71
2023/06/22 08:52:54;;;;;;;3.08;2.50;;;22.20;99.90;;;;;;5050134;28;20202;-72
2023/06/22 08:55:21;;;;;;;7.40;4.97;;;22.00;99.90;;;;;;5050477;28;20234;-75
2023/06/22 08:57:48;;;;;;;4.88;2.80;;;22.10;99.90;;;;;;5050205;28;20668;-76
2023/06/22 09:00:16;;;;;;;2.90;2.50;;;22.20;99.90;;;;;;5050466;28;20288;-73
2023/06/22 09:02:43;;;;;;;4.47;3.75;;;22.30;99.90;;;;;;5049615;28;20261;-73
2023/06/22 09:05:10;;;;;;;4.30;2.90;;;22.30;99.90;;;;;;5049586;28;20241;-72
2023/06/22 09:07:37;;;;;;;3.38;3.03;;;22.20;99.90;;;;;;5048628;28;20207;-73
2023/06/22 09:10:07;;;;;;;3.33;3.03;;;22.00;99.90;;;;;;5050499;28;20242;-73
2023/06/22 09:12:36;;;;;;;4.57;3.17;;;22.10;99.90;;;;;;5049844;28;20234;-77
2023/06/22 09:15:04;;;;;;;3.42;3.13;;;22.20;99.90;;;;;;5049811;28;20209;-73
2023/06/22 09:17:31;;;;;;;2.90;2.58;;;22.30;99.90;;;;;;5049676;28;20268;-75
2023/06/22 09:19:58;;;;;;;4.93;3.17;;;22.20;99.90;;;;;;5050385;28;20674;-74
2023/06/22 09:22:28;;;;;;;3.38;3.08;;;22.30;99.90;;;;;;5050018;28;20211;-73
2023/06/22 09:24:56;;;;;;;2.92;2.60;;;22.40;99.90;;;;;;5047627;28;20203;-73
2023/06/22 09:27:24;;;;;;;4.82;2.65;;;22.40;99.90;;;;;;5048996;28;20218;-76
2023/06/22 09:29:51;;;;;;;2.60;2.40;;;22.30;99.90;;;;;;5048150;28;20697;-78
2023/06/22 09:32:18;;;;;;;3.05;2.72;;;22.40;99.90;;;;;;5047704;28;20296;-76
2023/06/22 09:34:45;;;;;;;5.45;4.40;;;22.60;99.90;;;;;;5042329;28;20283;-75
2023/06/22 09:37:12;;;;;;;3.47;3.17;;;22.70;99.90;;;;;;5048110;28;20242;-76
2023/06/22 09:39:39;;;;;;;7.13;3.28;;;23.10;99.90;;;;;;5049593;28;20307;-75
2023/06/22 09:42:06;;;;;;;3.42;2.90;;;23.30;99.90;;;;;;5049074;28;20295;-75
2023/06/22 09:44:35;;;;;;;5.10;3.10;;;23.40;99.90;;;;;;5049393;28;20270;-74
2023/06/22 09:47:02;;;;;;;3.97;3.33;;;23.50;99.90;;;;;;5043528;28;20256;-75
2023/06/22 09:49:29;;;;;;;5.18;3.78;;;23.60;99.90;;;;;;5045192;28;20242;-74
2023/06/22 09:51:55;;;;;;;5.20;3.58;;;23.60;99.90;;;;;;5049801;28;20700;-73
2023/06/22 09:54:22;;;;;;;3.55;3.25;;;23.40;99.90;;;;;;5046108;28;20231;-72
2023/06/22 09:56:49;;;;;;;3.13;2.83;;;23.60;99.90;;;;;;5052510;28;20202;-74
2023/06/22 09:59:16;;;;;;;3.70;3.40;;;23.90;99.90;;;;;;5048482;28;20265;-75
2023/06/22 10:01:44;;;;;;;4.43;3.42;;;24.00;99.90;;;;;;5053450;28;20203;-76
2023/06/22 10:04:11;;;;;;;5.40;4.13;;;24.00;99.90;;;;;;5052089;28;20678;-75
2023/06/22 10:06:40;;;;;;;6.50;3.47;;;24.20;99.90;;;;;;5051374;28;20234;-76
2023/06/22 10:09:07;;;;;;;5.45;3.72;;;24.60;99.90;;;;;;5051793;28;20207;-75
2023/06/22 10:11:34;;;;;;;2.90;2.63;;;24.90;99.90;;;;;;5048795;28;20298;-75
2023/06/22 10:14:01;;;;;;;4.25;3.83;;;30.50;99.90;;;;;;5050462;28;20656;-75
2023/06/22 10:16:32;;;;;;;3.63;3.33;;;30.70;99.90;;;;;;5051152;28;20215;-76
2023/06/22 10:19:00;;;;;;;4.93;2.80;;;35.00;99.90;;;;;;5052673;28;20234;-76
2023/06/22 10:21:28;;;;;;;5.18;2.95;;;35.50;99.90;;;;;;5052666;28;20669;-75
2023/06/22 10:23:55;;;;;;;3.53;2.80;;;37.80;99.90;;;;;;5046563;28;20215;-76
2023/06/22 10:26:22;;;;;;;3.63;3.33;;;36.70;99.90;;;;;;5052383;28;20230;-76
2023/06/22 10:28:49;;;;;;;3.22;2.92;;;36.70;99.90;;;;;;5043713;28;20304;-75
2023/06/22 10:31:16;;;;;;;4.65;4.25;;;32.80;99.90;;;;;;5053284;28;20249;-77
2023/06/22 10:33:43;;;;;;;4.03;3.50;;;30.10;99.90;;;;;;5052762;28;20287;-77
2023/06/22 10:36:12;;;;;;;3.88;3.58;;;28.70;99.90;;;;;;5053376;28;20217;-75
2023/06/22 10:38:39;;;;;;;4.45;4.03;;;28.40;99.90;;;;;;5052683;28;20234;-76
2023/06/22 10:41:06;;;;;;;5.15;3.47;;;28.20;99.90;;;;;;5044373;28;20246;-76
2023/06/22 10:43:33;;;;;;;4.55;3.90;;;27.40;99.90;;;;;;5047201;28;20238;-76
2023/06/22 10:46:00;;;;;;;6.88;4.97;;;26.60;99.90;;;;;;5053203;28;20576;-77
2023/06/22 10:48:27;;;;;;;4.55;4.15;;;26.20;99.90;;;;;;5052313;28;20246;-76
2023/06/22 10:50:54;;;;;;;5.82;3.15;;;26.30;99.90;;;;;;5052976;28;20242;-76
2023/06/22 10:53:22;;;;;;;5.90;3.78;;;26.20;99.90;;;;;;5053051;28;20651;-75
2023/06/22 10:55:50;;;;;;;5.38;3.38;;;26.20;99.90;;;;;;5052497;28;20203;-75
2023/06/22 10:58:18;;;;;;;3.72;3.42;;;26.20;99.90;;;;;;5052675;28;20788;-76
2023/06/22 11:00:45;;;;;;;4.80;3.58;;;26.20;99.90;;;;;;5052139;28;20740;-76
2023/06/22 11:03:14;;;;;;;3.42;3.13;;;26.30;99.90;;;;;;5052989;28;20286;-76
2023/06/22 11:05:41;;;;;;;4.15;3.25;;;25.90;99.90;;;;;;5052191;28;20235;-75
2023/06/22 11:08:08;;;;;;;5.40;4.07;;;25.50;99.90;;;;;;5052754;28;20210;-75
2023/06/22 11:10:36;;;;;;;3.42;3.05;;;25.80;99.90;;;;;;5051876;28;20686;-76
2023/06/22 11:13:04;;;;;;;4.10;3.70;;;26.20;99.90;;;;;;5052573;28;20234;-75
2023/06/22 11:15:31;;;;;;;4.07;3.25;;;26.50;99.90;;;;;;5052302;28;20209;-75
2023/06/22 11:17:57;;;;;;;3.80;3.40;;;26.80;99.90;;;;;;5051832;28;20238;-75
2023/06/22 11:20:24;;;;;;;3.25;2.95;;;26.80;99.90;;;;;;5052273;28;20202;-75
2023/06/22 11:22:51;;;;;;;4.15;3.08;;;27.00;99.90;;;;;;5052583;28;20681;-75
2023/06/22 11:25:18;;;;;;;3.85;3.55;;;27.00;99.90;;;;;;5052013;28;20238;-74
2023/06/22 11:27:47;;;;;;;3.60;3.30;;;26.80;99.90;;;;;;5051581;28;20242;-75
2023/06/22 11:30:14;;;;;;;2.97;2.70;;;26.80;99.90;;;;;;5051634;28;20230;-75
2023/06/22 11:32:40;;;;;;;7.70;3.63;;;26.60;99.90;;;;;;5051940;28;20242;-75
2023/06/22 11:35:08;;;;;;;3.40;3.10;;;26.70;99.90;;;;;;5052073;28;20242;-75
2023/06/22 11:37:35;;;;;;;4.38;3.22;;;26.80;99.90;;;;;;5051733;28;20238;-74
2023/06/22 11:40:04;;;;;;;3.05;2.67;;;27.00;99.90;;;;;;5051700;28;20264;-74
2023/06/22 11:42:31;;;;;;;2.95;2.42;;;27.40;99.90;;;;;;5049461;28;20249;-75
2023/06/22 11:44:59;;;;;;;3.45;3.15;;;27.60;99.90;;;;;;5043666;28;20239;-74
2023/06/22 11:47:26;;;;;;;3.42;3.13;;;27.10;99.90;;;;;;5047434;28;20235;-72
2023/06/22 11:49:53;;;;;;;3.80;2.90;;;26.30;99.90;;;;;;5042337;28;20235;-73
2023/06/22 11:52:20;;;;;;;3.22;2.92;;;25.80;99.90;;;;;;5051540;28;20210;-73
2023/06/22 11:54:47;;;;;;;3.78;3.42;;;25.60;99.90;;;;;;5046637;28;20211;-74
2023/06/22 11:57:14;;;;;;;3.28;2.97;;;26.20;99.90;;;;;;5049978;28;20317;-70
2023/06/22 11:59:41;;;;;;;5.20;3.83;;;26.70;99.90;;;;;;5046911;28;20274;-71
2023/06/22 12:02:09;;;;;;;4.55;3.20;;;27.10;99.90;;;;;;5047498;28;20242;-71
2023/06/22 12:04:36;;;;;;;3.35;3.08;;;26.90;99.90;;;;;;5049412;28;20253;-71
2023/06/22 12:07:03;;;;;;;3.95;3.00;;;27.00;99.90;;;;;;5049839;28;20239;-71
2023/06/22 12:09:30;;;;;;;2.80;2.55;;;27.30;99.90;;;;;;5051318;28;20211;-71
2023/06/22 12:11:57;;;;;;;3.20;2.90;;;27.10;99.90;;;;;;5051653;28;20238;-81
2023/06/22 12:14:24;;;;;;;3.13;2.53;;;27.30;99.90;;;;;;5049003;28;20265;-72
2023/06/22 12:16:51;;;;;;;3.13;2.88;;;27.10;99.90;;;;;;5049416;28;20207;-71
2023/06/22 12:19:19;;;;;;;4.22;3.03;;;27.10;99.90;;;;;;5049509;28;20226;-70
2023/06/22 12:21:46;;;;;;;3.17;2.50;;;27.30;99.90;;;;;;5049740;28;20677;-71
2023/06/22 12:24:13;;;;;;;4.85;3.08;;;26.90;99.90;;;;;;5050350;28;20299;-74
2023/06/22 12:26:40;;;;;;;2.40;2.13;;;26.80;99.90;;;;;;5050006;28;20299;-81
2023/06/22 12:29:07;;;;;;;4.30;2.35;;;26.40;99.90;;;;;;5050897;28;20242;-71
2023/06/22 12:31:33;;;;;;;4.70;2.78;;;26.20;99.90;;;;;;5050827;28;20233;-71
2023/06/22 12:34:00;;;;;;;3.95;2.90;;;26.10;99.90;;;;;;5051242;28;20261;-80
2023/06/22 12:36:29;;;;;;;2.92;2.67;;;26.00;99.90;;;;;;5050639;28;20235;-71
2023/06/22 12:38:55;;;;;;;2.60;2.20;;;26.20;99.90;;;;;;5051139;28;20689;-71
2023/06/22 12:41:22;;;;;;;2.13;1.77;;;26.50;99.90;;;;;;5050329;28;20232;-86
2023/06/22 12:43:49;;;;;;;2.03;1.85;;;26.50;99.90;;;;;;5049436;28;20230;-72
2023/06/22 12:46:16;;;;;;;3.08;2.60;;;26.20;99.90;;;;;;5049418;28;20299;-83
2023/06/22 12:48:43;;;;;;;2.72;2.20;;;26.00;99.90;;;;;;5048861;28;20207;-85